Time;durP1;ratioP1;P1;durP2;ratioP2;P2;SDS_P1;SDS_P2;PMS_P1;PMS_P2;Temp;Humidity;BMP_temperature;BMP_pressure;BME280_temperature;BME280_humidity;BME280_pressure;Samples;Min_cycle;Max_cycle;Signal;HPM_P1;HPM_P2
2021/06/21 00:01:16;;;;;;;;;;;18.20;99.90;;;;;;5045279;28;19936;-68
2021/06/21 00:04:32;;;;;;;;;;;18.10;99.90;;;;;;5052235;28;20381;-69
2021/06/21 00:07:21;;;;;;;;;;;18.00;99.90;;;;;;5051947;28;19925;-67
2021/06/21 00:10:13;;;;;;;;;;;18.00;99.90;;;;;;5052219;28;19951;-68
2021/06/21 00:13:02;;;;;;;;;;;18.10;99.90;;;;;;5052232;28;20292;-68
2021/06/21 00:15:52;;;;;;;;;;;18.10;99.90;;;;;;5044489;28;19928;-68
2021/06/21 00:18:40;;;;;;;;;;;18.20;99.90;;;;;;5051585;28;20288;-67
2021/06/21 00:21:29;;;;;;;;;;;18.20;99.90;;;;;;5050651;28;19962;-67
2021/06/21 00:24:21;;;;;;;;;;;18.20;99.90;;;;;;5051958;28;19928;-67
2021/06/21 00:27:11;;;;;;;;;;;18.10;99.90;;;;;;5048195;28;19924;-67
2021/06/21 00:30:00;;;;;;;;;;;18.10;99.90;;;;;;5036964;28;19925;-69
2021/06/21 00:32:49;;;;;;;;;;;18.10;99.90;;;;;;5049516;28;19924;-68
2021/06/21 00:35:37;;;;;;;;;;;18.20;99.90;;;;;;5049580;28;20179;-68
2021/06/21 00:38:26;;;;;;;;;;;18.20;99.90;;;;;;5051212;28;19932;-67
2021/06/21 00:41:15;;;;;;;;;;;18.20;99.90;;;;;;5051183;28;19929;-67
2021/06/21 00:44:06;;;;;;;;;;;18.20;99.90;;;;;;5051562;28;19951;-67
2021/06/21 00:46:55;;;;;;;;;;;18.10;99.90;;;;;;5025070;28;19925;-69
2021/06/21 00:49:45;;;;;;;;;;;18.00;99.90;;;;;;5035257;28;19932;-67
2021/06/21 00:52:34;;;;;;;;;;;18.00;99.90;;;;;;5049386;28;19925;-67
2021/06/21 00:55:23;;;;;;;;;;;18.00;99.90;;;;;;5051373;28;19932;-67
2021/06/21 00:58:13;;;;;;;;;;;18.00;99.90;;;;;;5051865;28;20289;-68
2021/06/21 01:01:04;;;;;;;;;;;18.00;99.90;;;;;;5028408;28;20385;-67
2021/06/21 01:03:52;;;;;;;;;;;18.10;99.90;;;;;;5048473;28;19925;-67
2021/06/21 01:06:41;;;;;;;;;;;18.10;99.90;;;;;;5050117;28;20273;-67
2021/06/21 01:09:30;;;;;;;;;;;18.10;99.90;;;;;;5050576;28;20015;-67
2021/06/21 01:12:28;;;;;;;;;;;18.20;99.90;;;;;;5050383;28;19992;-67
2021/06/21 01:15:19;;;;;;;;;;;18.10;99.90;;;;;;5045585;28;19924;-67
2021/06/21 01:18:11;;;;;;;;;;;18.10;99.90;;;;;;5050976;28;20410;-68
2021/06/21 01:21:24;;;;;;;;;;;18.10;99.90;;;;;;5049944;28;20403;-68
2021/06/21 01:24:46;;;;;;;;;;;18.10;99.90;;;;;;5049444;28;19924;-69
2021/06/21 01:27:43;;;;;;;;;;;18.10;99.90;;;;;;5034488;28;19936;-68
2021/06/21 01:30:41;;;;;;;;;;;18.20;99.90;;;;;;5041531;28;19944;-67
2021/06/21 01:33:32;;;;;;;;;;;18.30;99.90;;;;;;5047882;28;19936;-68
2021/06/21 01:36:21;;;;;;;;;;;18.20;99.90;;;;;;5032261;28;20039;-67
2021/06/21 01:39:09;;;;;;;;;;;18.20;99.90;;;;;;5049764;28;20347;-67
2021/06/21 01:42:02;;;;;;;;;;;18.10;99.90;;;;;;5051162;28;20022;-68
2021/06/21 01:44:54;;;;;;;;;;;18.00;99.90;;;;;;5047018;28;20352;-68
2021/06/21 01:47:44;;;;;;;;;;;17.80;99.90;;;;;;5034445;28;20411;-67
2021/06/21 01:50:34;;;;;;;;;;;17.80;99.90;;;;;;5050648;28;19925;-68
2021/06/21 01:53:24;;;;;;;;;;;17.90;99.90;;;;;;5051192;28;19925;-68
2021/06/21 01:56:16;;;;;;;;;;;17.90;99.90;;;;;;5050156;28;19925;-67
2021/06/21 01:59:06;;;;;;;;;;;17.90;99.90;;;;;;5037236;28;19931;-68
2021/06/21 02:01:57;;;;;;;;;;;17.80;99.90;;;;;;5051408;28;19925;-68
2021/06/21 02:04:47;;;;;;;;;;;17.90;99.90;;;;;;5069388;28;20404;-68
2021/06/21 02:07:43;;;;;;;;;;;17.90;99.90;;;;;;5052254;28;20278;-68
2021/06/21 02:10:33;;;;;;;;;;;17.80;99.90;;;;;;5052350;28;19932;-68
2021/06/21 02:13:48;;;;;;;;;;;17.80;99.90;;;;;;5036244;28;19929;-68
2021/06/21 02:16:37;;;;;;;;;;;17.80;99.90;;;;;;5029886;28;20355;-68
2021/06/21 02:19:27;;;;;;;;;;;17.70;99.90;;;;;;5053052;28;19931;-68
2021/06/21 02:22:15;;;;;;;;;;;17.70;99.90;;;;;;5052802;28;20365;-68
2021/06/21 02:25:07;;;;;;;;;;;17.60;99.90;;;;;;5052153;28;19935;-68
2021/06/21 02:27:58;;;;;;;;;;;17.60;99.90;;;;;;5053634;28;20062;-68
2021/06/21 02:30:46;;;;;;;;;;;17.60;99.90;;;;;;5045826;28;20417;-68
2021/06/21 02:33:35;;;;;;;;;;;17.50;99.90;;;;;;5053827;28;19956;-70
2021/06/21 02:36:23;;;;;;;;;;;17.40;99.90;;;;;;5038412;28;20258;-68
2021/06/21 02:39:12;;;;;;;;;;;17.30;99.90;;;;;;5054972;28;19928;-68
2021/06/21 02:42:02;;;;;;;;;;;17.20;99.90;;;;;;5053575;28;19947;-68
2021/06/21 02:44:51;;;;;;;;;;;17.30;99.90;;;;;;5053706;28;20015;-68
2021/06/21 02:47:40;;;;;;;;;;;17.30;99.90;;;;;;5038344;28;20280;-68
2021/06/21 02:50:29;;;;;;;;;;;17.30;99.90;;;;;;5039464;28;19928;-67
2021/06/21 02:53:21;;;;;;;;;;;17.30;99.90;;;;;;5039486;28;20398;-67
2021/06/21 02:56:11;;;;;;;;;;;17.30;99.90;;;;;;5038104;28;19928;-67
2021/06/21 02:59:05;;;;;;;;;;;17.20;99.90;;;;;;5054292;28;20002;-69
2021/06/21 03:01:55;;;;;;;;;;;17.20;99.90;;;;;;5047716;28;20015;-67
2021/06/21 03:04:45;;;;;;;;;;;17.20;99.90;;;;;;5032712;28;19925;-70
2021/06/21 03:07:35;;;;;;;;;;;17.10;99.90;;;;;;5034649;28;20093;-68
2021/06/21 03:10:24;;;;;;;;;;;17.10;99.90;;;;;;5054275;28;19943;-68
2021/06/21 03:13:14;;;;;;;;;;;17.10;99.90;;;;;;5048314;28;19952;-68
2021/06/21 03:16:04;;;;;;;;;;;17.10;99.90;;;;;;5033252;28;19964;-68
2021/06/21 03:18:53;;;;;;;;;;;17.10;99.90;;;;;;5052230;28;20027;-68
2021/06/21 03:21:42;;;;;;;;;;;17.10;99.90;;;;;;5054305;28;20044;-68
2021/06/21 03:24:31;;;;;;;;;;;17.20;99.90;;;;;;5050356;28;19960;-68
2021/06/21 03:27:27;;;;;;;;;;;17.10;99.90;;;;;;5052218;28;19960;-68
2021/06/21 03:30:16;;;;;;;;;;;17.20;99.90;;;;;;5045634;28;20026;-67
2021/06/21 03:33:07;;;;;;;;;;;17.30;99.90;;;;;;5053530;28;19998;-68
2021/06/21 03:35:55;;;;;;;;;;;17.40;99.90;;;;;;5052661;28;20280;-68
2021/06/21 03:38:44;;;;;;;;;;;17.50;99.90;;;;;;5052087;28;19928;-68
2021/06/21 03:41:37;;;;;;;;;;;17.40;99.90;;;;;;5051579;28;19921;-67
2021/06/21 03:44:27;;;;;;;;;;;17.40;99.90;;;;;;5050486;28;20015;-68
2021/06/21 03:47:17;;;;;;;;;;;17.40;99.90;;;;;;5045975;28;19986;-68
2021/06/21 03:50:09;;;;;;;;;;;17.50;99.90;;;;;;5042895;28;20285;-68
2021/06/21 03:52:57;;;;;;;;;;;17.50;99.90;;;;;;5037419;28;19943;-68
2021/06/21 03:55:46;;;;;;;;;;;17.60;99.90;;;;;;5053830;28;19936;-71
2021/06/21 03:58:59;;;;;;;;;;;17.60;99.90;;;;;;5052295;28;19920;-68
2021/06/21 04:01:48;;;;;;;;;;;17.70;99.90;;;;;;5046922;28;19932;-68
2021/06/21 04:04:37;;;;;;;;;;;17.70;99.90;;;;;;5050153;28;19921;-67
2021/06/21 04:07:27;;;;;;;;;;;17.70;99.90;;;;;;5036575;28;20027;-68
2021/06/21 04:10:18;;;;;;;;;;;17.70;99.90;;;;;;5052891;28;20009;-68
2021/06/21 04:13:08;;;;;;;;;;;17.70;99.90;;;;;;5051789;28;19928;-68
2021/06/21 04:15:56;;;;;;;;;;;17.70;99.90;;;;;;5042341;28;19921;-67
2021/06/21 04:18:45;;;;;;;;;;;17.80;99.90;;;;;;5052626;28;20376;-68
2021/06/21 04:21:33;;;;;;;;;;;18.00;99.90;;;;;;5049249;28;19943;-67
2021/06/21 04:24:23;;;;;;;;;;;18.10;99.90;;;;;;5053227;28;19920;-68
2021/06/21 04:27:13;;;;;;;;;;;18.20;99.90;;;;;;5052123;28;19958;-67
2021/06/21 04:30:01;;;;;;;;;;;18.00;99.90;;;;;;5051372;28;19928;-67
2021/06/21 04:32:50;;;;;;;;;;;18.10;99.90;;;;;;5043913;28;19928;-68
2021/06/21 04:35:39;;;;;;;;;;;18.00;99.90;;;;;;5050547;28;19931;-67
2021/06/21 04:38:28;;;;;;;;;;;18.00;99.90;;;;;;5050852;28;20376;-67
2021/06/21 04:41:18;;;;;;;;;;;18.00;99.90;;;;;;5050760;28;19920;-67
2021/06/21 04:44:07;;;;;;;;;;;18.00;99.90;;;;;;5037342;28;20360;-68
2021/06/21 04:46:56;;;;;;;;;;;18.00;99.90;;;;;;5042141;28;19985;-68
2021/06/21 04:49:44;;;;;;;;;;;17.90;99.90;;;;;;5070083;28;19947;-68
2021/06/21 04:52:34;;;;;;;;;;;17.90;99.90;;;;;;5052127;28;20380;-67
2021/06/21 04:55:23;;;;;;;;;;;17.90;99.90;;;;;;5050841;28;19920;-68
2021/06/21 04:58:14;;;;;;;;;;;17.80;99.90;;;;;;5050662;28;19956;-68
2021/06/21 05:01:03;;;;;;;;;;;17.90;99.90;;;;;;5044494;28;19928;-68
2021/06/21 05:03:53;;;;;;;;;;;17.80;99.90;;;;;;5047363;28;20280;-68
2021/06/21 05:06:42;;;;;;;;;;;17.90;99.90;;;;;;5052078;28;19928;-69
2021/06/21 05:09:33;;;;;;;;;;;18.00;99.90;;;;;;5036559;28;19920;-69
2021/06/21 05:12:46;;;;;;;;;;;17.80;99.90;;;;;;5047416;28;19924;-69
2021/06/21 05:15:36;;;;;;;;;;;17.80;99.90;;;;;;5020729;28;20018;-69
2021/06/21 05:18:25;;;;;;;;;;;17.80;99.90;;;;;;5046738;28;19955;-68
2021/06/21 05:21:13;;;;;;;;;;;17.80;99.90;;;;;;5051061;28;19920;-69
2021/06/21 05:24:02;;;;;;;;;;;17.90;99.90;;;;;;5050205;28;19943;-69
2021/06/21 05:26:52;;;;;;;;;;;18.00;99.90;;;;;;5045320;28;20344;-69
2021/06/21 05:29:45;;;;;;;;;;;18.10;99.90;;;;;;5034289;28;19925;-69
2021/06/21 05:32:36;;;;;;;;;;;18.30;99.90;;;;;;5051821;28;20353;-69
2021/06/21 05:35:25;;;;;;;;;;;18.30;99.90;;;;;;5055773;28;20353;-69
2021/06/21 05:38:14;;;;;;;;;;;18.40;99.90;;;;;;5054700;28;19971;-70
2021/06/21 05:41:03;;;;;;;;;;;18.50;99.90;;;;;;5061808;28;19946;-70
2021/06/21 05:43:52;;;;;;;;;;;18.50;99.90;;;;;;5043624;28;20010;-69
2021/06/21 05:49:56;;;;;;;;;;;18.50;99.90;;;;;;5049682;28;19975;-69
2021/06/21 05:52:45;;;;;;;;;;;18.60;99.90;;;;;;5042372;28;20319;-70
2021/06/21 05:55:35;;;;;;;;;;;18.80;99.90;;;;;;5051915;28;19922;-72
2021/06/21 05:58:24;;;;;;;;;;;19.10;99.90;;;;;;5050658;28;20442;-70
2021/06/21 06:01:13;;;;;;;;;;;19.10;99.90;;;;;;5045305;28;19920;-71
2021/06/21 06:04:02;;;;;;;;;;;19.30;99.90;;;;;;5051076;28;19928;-69
2021/06/21 06:06:52;;;;;;;;;;;19.70;99.90;;;;;;5043087;28;19921;-70
2021/06/21 06:09:49;;;;;;;;;;;20.00;99.90;;;;;;5052878;28;19970;-69
2021/06/21 06:12:37;;;;;;;;;;;19.90;99.90;;;;;;5051830;28;19970;-70
2021/06/21 06:15:27;;;;;;;;;;;20.10;99.90;;;;;;5035012;28;19920;-69
2021/06/21 06:18:16;;;;;;;;;;;20.00;99.90;;;;;;5052456;28;19921;-68
2021/06/21 06:21:06;;;;;;;;;;;19.80;99.90;;;;;;5046723;28;20357;-69
2021/06/21 06:23:59;;;;;;;;;;;20.10;99.90;;;;;;5051839;28;19921;-72
2021/06/21 06:26:48;;;;;;;;;;;20.10;99.90;;;;;;5050891;28;19921;-68
2021/06/21 06:29:36;;;;;;;;;;;20.00;99.90;;;;;;5048710;28;20357;-68
2021/06/21 06:32:25;;;;;;;;;;;20.00;99.90;;;;;;5046888;28;19927;-68
2021/06/21 06:35:14;;;;;;;;;;;20.00;99.90;;;;;;5048684;28;19982;-69
2021/06/21 06:38:03;;;;;;;;;;;20.40;99.90;;;;;;5053282;28;19927;-68
2021/06/21 06:40:54;;;;;;;;;;;20.50;99.90;;;;;;5049622;28;19928;-69
2021/06/21 06:43:42;;;;;;;;;;;20.50;99.90;;;;;;5053380;28;20371;-69
2021/06/21 06:46:32;;;;;;;;;;;20.70;99.90;;;;;;5032120;28;20407;-69
2021/06/21 06:49:25;;;;;;;;;;;20.80;99.90;;;;;;5063992;28;20000;-70
2021/06/21 06:52:35;;;;;;;;;;;21.40;99.90;;;;;;5058359;28;19928;-71
2021/06/21 06:58:33;;;;;;;;;;;21.70;99.90;;;;;;5050150;28;19921;-70
2021/06/21 07:01:47;;;;;;;;;;;22.70;99.90;;;;;;5047302;28;20416;-72
2021/06/21 07:04:36;;;;;;;;;;;24.10;99.90;;;;;;5056262;28;20341;-69
2021/06/21 07:07:26;;;;;;;;;;;25.00;99.90;;;;;;5055138;28;19921;-70
2021/06/21 07:10:15;;;;;;;;;;;25.20;99.90;;;;;;5050794;28;19928;-70
2021/06/21 07:13:04;;;;;;;;;;;25.70;99.90;;;;;;5051659;28;19928;-70
2021/06/21 07:15:55;;;;;;;;;;;25.90;99.90;;;;;;5044426;28;19927;-70
2021/06/21 07:18:44;;;;;;;;;;;26.20;99.90;;;;;;5047465;28;19924;-71
2021/06/21 07:21:32;;;;;;;;;;;26.40;99.90;;;;;;5046044;28;19932;-71
2021/06/21 07:24:21;;;;;;;;;;;28.20;99.90;;;;;;5042689;28;19927;-72
2021/06/21 07:27:10;;;;;;;;;;;27.40;99.50;;;;;;5042500;28;20074;-70
2021/06/21 07:30:02;;;;;;;;;;;27.70;98.50;;;;;;5038515;28;19971;-70
2021/06/21 07:32:53;;;;;;;;;;;29.40;97.30;;;;;;5026078;28;19936;-70
2021/06/21 07:36:08;;;;;;;;;;;31.10;94.90;;;;;;5050694;28;19927;-70
2021/06/21 07:38:56;;;;;;;;;;;29.30;92.50;;;;;;5053609;28;19920;-71
2021/06/21 07:41:45;;;;;;;;;;;29.50;92.90;;;;;;5064313;28;19924;-71
2021/06/21 07:44:37;;;;;;;;;;;29.50;92.50;;;;;;5048713;28;19928;-72
2021/06/21 07:47:26;;;;;;;;;;;28.90;94.80;;;;;;5029070;28;19921;-71
2021/06/21 07:50:17;;;;;;;;;;;29.80;94.40;;;;;;5043123;28;19956;-71
2021/06/21 07:53:07;;;;;;;;;;;32.40;86.90;;;;;;5030075;28;19959;-72
2021/06/21 07:55:56;;;;;;;;;;;34.80;77.60;;;;;;5033926;28;19921;-71
2021/06/21 07:58:46;;;;;;;;;;;34.30;76.10;;;;;;5034580;28;19921;-71
2021/06/21 08:01:34;;;;;;;;;;;34.30;70.30;;;;;;5031334;28;19921;-72
2021/06/21 08:04:23;;;;;;;;;;;35.10;68.00;;;;;;5032351;28;19939;-71
2021/06/21 08:07:13;;;;;;;;;;;35.70;66.50;;;;;;5048917;28;19929;-71
2021/06/21 08:10:02;;;;;;;;;;;35.60;62.80;;;;;;5034963;28;19925;-71
2021/06/21 08:12:51;;;;;;;;;;;32.50;68.40;;;;;;5029519;28;20011;-71
2021/06/21 08:15:40;;;;;;;;;;;29.50;85.30;;;;;;5027011;28;20002;-71
2021/06/21 08:18:29;;;;;;;;;;;28.80;90.70;;;;;;5041146;28;19944;-71
2021/06/21 08:21:17;;;;;;;;;;;30.20;88.20;;;;;;5039939;28;20062;-71
2021/06/21 08:24:10;;;;;;;;;;;31.40;82.60;;;;;;5032312;28;20011;-72
2021/06/21 08:27:02;;;;;;;;;;;30.10;80.50;;;;;;5034244;28;19943;-72
2021/06/21 08:29:51;;;;;;;;;;;32.20;79.50;;;;;;5027086;28;20373;-71
2021/06/21 08:32:40;;;;;;;;;;;33.40;73.90;;;;;;5028745;28;19971;-72
2021/06/21 08:35:29;;;;;;;;;;;33.70;71.00;;;;;;5034324;28;19921;-71
2021/06/21 08:38:18;;;;;;;;;;;33.80;69.80;;;;;;5032820;28;20207;-72
2021/06/21 08:41:08;;;;;;;;;;;36.20;62.00;;;;;;5045142;28;19921;-72
2021/06/21 08:43:57;;;;;;;;;;;37.50;59.00;;;;;;5037864;28;19928;-72
2021/06/21 08:47:12;;;;;;;;;;;35.70;58.50;;;;;;5040918;28;19927;-72
2021/06/21 08:50:02;;;;;;;;;;;34.80;63.60;;;;;;5066637;28;19999;-72
2021/06/21 08:52:52;;;;;;;;;;;34.90;60.20;;;;;;5042251;28;19927;-72
2021/06/21 08:55:41;;;;;;;;;;;34.30;64.70;;;;;;5049601;28;20073;-72
2021/06/21 08:58:32;;;;;;;;;;;33.50;63.70;;;;;;5036326;28;19925;-71
2021/06/21 09:01:46;;;;;;;;;;;34.70;61.70;;;;;;5047882;28;19980;-71
2021/06/21 09:04:39;;;;;;;;;;;37.70;56.10;;;;;;5048818;28;19948;-71
2021/06/21 09:07:28;;;;;;;;;;;34.90;56.00;;;;;;5048897;28;19967;-71
2021/06/21 09:10:24;;;;;;;;;;;34.90;61.00;;;;;;5053896;28;19943;-71
2021/06/21 09:13:14;;;;;;;;;;;38.90;54.00;;;;;;5047586;28;20009;-72
2021/06/21 09:16:04;;;;;;;;;;;39.90;48.60;;;;;;5037100;28;20291;-71
2021/06/21 09:18:53;;;;;;;;;;;40.50;45.40;;;;;;5052356;28;19927;-71
2021/06/21 09:21:42;;;;;;;;;;;40.10;42.50;;;;;;5046468;28;19931;-71
2021/06/21 09:24:32;;;;;;;;;;;39.80;43.20;;;;;;5049273;28;19986;-71
2021/06/21 09:27:22;;;;;;;;;;;39.60;43.70;;;;;;5051006;28;20066;-71
2021/06/21 09:30:12;;;;;;;;;;;35.30;51.70;;;;;;5048709;28;20003;-71
2021/06/21 09:33:08;;;;;;;;;;;35.00;53.00;;;;;;5037677;28;20328;-71
2021/06/21 09:35:56;;;;;;;;;;;35.10;52.90;;;;;;5052442;28;19924;-71
2021/06/21 09:38:44;;;;;;;;;;;34.70;54.50;;;;;;5050381;28;19925;-71
2021/06/21 09:41:38;;;;;;;;;;;35.90;50.30;;;;;;5041336;28;20273;-73
2021/06/21 09:44:31;;;;;;;;;;;33.30;55.60;;;;;;5049110;28;20384;-71
2021/06/21 09:47:23;;;;;;;;;;;32.00;63.10;;;;;;5004507;28;19921;-71
2021/06/21 09:50:15;;;;;;;;;;;31.50;60.90;;;;;;5017245;28;19921;-70
2021/06/21 09:53:04;;;;;;;;;;;30.60;65.50;;;;;;5021597;28;19927;-70
2021/06/21 09:55:52;;;;;;;;;;;29.30;69.40;;;;;;5048107;28;19921;-70
2021/06/21 09:58:46;;;;;;;;;;;29.00;74.50;;;;;;5040142;28;20285;-71
2021/06/21 10:01:35;;;;;;;;;;;28.30;74.80;;;;;;5035064;28;20261;-71
2021/06/21 10:04:24;;;;;;;;;;;27.40;77.80;;;;;;5026023;28;20400;-70
2021/06/21 10:07:30;;;;;;;;;;;27.30;83.90;;;;;;5037090;28;19924;-70
2021/06/21 10:10:21;;;;;;;;;;;27.00;84.60;;;;;;5043984;28;19972;-71
2021/06/21 10:13:11;;;;;;;;;;;27.40;87.30;;;;;;5036077;28;20460;-70
2021/06/21 10:16:01;;;;;;;;;;;27.70;84.50;;;;;;5011043;28;19928;-70
2021/06/21 10:18:50;;;;;;;;;;;27.70;86.70;;;;;;5048677;28;19921;-70
2021/06/21 10:21:39;;;;;;;;;;;27.50;82.00;;;;;;5040151;28;20447;-70
2021/06/21 10:24:31;;;;;;;;;;;27.20;83.80;;;;;;5049484;28;20357;-70
2021/06/21 10:27:21;;;;;;;;;;;29.10;81.80;;;;;;5024973;28;19929;-70
2021/06/21 10:30:11;;;;;;;;;;;31.30;72.90;;;;;;5039179;28;19921;-70
2021/06/21 10:33:01;;;;;;;;;;;31.30;73.00;;;;;;5046247;28;19936;-69
2021/06/21 10:35:50;;;;;;;;;;;29.60;76.90;;;;;;5034502;28;19921;-70
2021/06/21 10:38:39;;;;;;;;;;;27.90;80.60;;;;;;5040519;28;19921;-70
2021/06/21 10:44:42;;;;;;;;;;;27.50;84.70;;;;;;5038578;28;19921;-69
2021/06/21 10:47:33;;;;;;;;;;;28.10;83.60;;;;;;5049844;28;19959;-69
2021/06/21 10:50:24;;;;;;;;;;;28.10;82.30;;;;;;5055788;28;19921;-70
2021/06/21 10:53:13;;;;;;;;;;;27.60;83.90;;;;;;5053224;28;19924;-70
2021/06/21 10:56:02;;;;;;;;;;;27.50;83.00;;;;;;5049320;28;20269;-70
2021/06/21 10:59:10;;;;;;;;;;;27.40;83.30;;;;;;5030613;28;19932;-69
2021/06/21 11:01:59;;;;;;;;;;;27.30;82.80;;;;;;5049685;28;19920;-70
2021/06/21 11:04:48;;;;;;;;;;;27.10;84.20;;;;;;5055649;28;19955;-70
2021/06/21 11:07:37;;;;;;;;;;;28.50;77.60;;;;;;5037551;28;19975;-71
2021/06/21 11:10:29;;;;;;;;;;;28.80;78.20;;;;;;5053649;28;19964;-69
2021/06/21 11:13:36;;;;;;;;;;;28.20;80.90;;;;;;5053193;28;20357;-70
2021/06/21 11:16:26;;;;;;;;;;;28.00;82.30;;;;;;5034591;28;19931;-70
2021/06/21 11:19:30;;;;;;;;;;;27.70;79.50;;;;;;5049946;28;19921;-69
2021/06/21 11:22:39;;;;;;;;;;;27.10;80.40;;;;;;5041684;28;19967;-70
2021/06/21 11:25:28;;;;;;;;;;;27.40;83.70;;;;;;5047434;28;19921;-69
2021/06/21 11:28:36;;;;;;;;;;;27.30;83.80;;;;;;5028401;28;19925;-69
2021/06/21 11:31:28;;;;;;;;;;;27.20;83.90;;;;;;5044684;28;20419;-69
2021/06/21 11:34:16;;;;;;;;;;;27.40;82.40;;;;;;5036748;28;19937;-70
2021/06/21 11:37:25;;;;;;;;;;;27.20;82.80;;;;;;5037587;28;20393;-71
2021/06/21 11:40:28;;;;;;;;;;;26.90;83.70;;;;;;5053168;28;19956;-70
2021/06/21 11:43:22;;;;;;;;;;;26.90;82.50;;;;;;5049119;28;19924;-71
2021/06/21 11:46:29;;;;;;;;;;;27.10;82.10;;;;;;5042267;28;19921;-69
2021/06/21 11:49:21;;;;;;;;;;;27.40;81.30;;;;;;5041442;28;19921;-69
2021/06/21 11:52:10;;;;;;;;;;;27.20;80.60;;;;;;5037297;28;19928;-69
2021/06/21 11:55:15;;;;;;;;;;;27.50;81.40;;;;;;5046933;28;20346;-69
2021/06/21 11:58:29;;;;;;;;;;;27.50;82.80;;;;;;5048624;28;19929;-69
2021/06/21 12:01:18;;;;;;;;;;;27.50;80.40;;;;;;5029480;28;19932;-70
2021/06/21 12:07:40;;;;;;;;;;;27.50;81.90;;;;;;5028232;28;19924;-69
2021/06/21 12:10:30;;;;;;;;;;;27.50;82.90;;;;;;5025286;28;19936;-69
2021/06/21 12:13:20;;;;;;;;;;;27.30;81.00;;;;;;5039897;28;19929;-70
2021/06/21 12:16:09;;;;;;;;;;;27.50;80.10;;;;;;5021025;28;19929;-69
2021/06/21 12:18:59;;;;;;;;;;;27.30;78.10;;;;;;5030912;28;19928;-69
2021/06/21 12:21:48;;;;;;;;;;;26.80;81.00;;;;;;5038288;28;19929;-69
2021/06/21 12:24:36;;;;;;;;;;;27.10;82.60;;;;;;5037846;28;19936;-69
2021/06/21 12:27:26;;;;;;;;;;;27.00;79.10;;;;;;5038678;28;19925;-69
2021/06/21 12:30:15;;;;;;;;;;;27.00;81.30;;;;;;5032571;28;19927;-69
2021/06/21 12:33:19;;;;;;;;;;;27.10;81.60;;;;;;5054402;28;19924;-69
2021/06/21 12:36:11;;;;;;;;;;;27.20;85.00;;;;;;5044072;28;19999;-69
2021/06/21 12:39:02;;;;;;;;;;;27.50;82.20;;;;;;5043939;28;19936;-69
2021/06/21 12:42:16;;;;;;;;;;;27.50;78.50;;;;;;5046996;28;19921;-69
2021/06/21 12:45:10;;;;;;;;;;;27.40;80.30;;;;;;5026447;28;19929;-68
2021/06/21 12:47:59;;;;;;;;;;;27.40;77.60;;;;;;5009513;28;19921;-69
2021/06/21 12:51:12;;;;;;;;;;;27.40;78.80;;;;;;5032564;28;20297;-68
2021/06/21 12:54:02;;;;;;;;;;;27.60;79.70;;;;;;5031966;28;19925;-70
2021/06/21 12:56:52;;;;;;;;;;;27.70;77.50;;;;;;5025957;28;19936;-69
2021/06/21 12:59:42;;;;;;;;;;;27.50;76.80;;;;;;5027492;28;20332;-69
2021/06/21 13:02:33;;;;;;;;;;;27.50;79.50;;;;;;5030816;28;19930;-69
2021/06/21 13:05:22;;;;;;;;;;;27.80;79.50;;;;;;5036581;28;19921;-68
2021/06/21 13:08:11;;;;;;;;;;;28.10;80.00;;;;;;5026958;28;19921;-69
2021/06/21 13:11:04;;;;;;;;;;;28.00;77.80;;;;;;5030130;28;19963;-68
2021/06/21 13:17:13;;;;;;;;;;;28.00;79.80;;;;;;5030159;28;20007;-69
2021/06/21 13:20:09;;;;;;;;;;;28.20;80.30;;;;;;5025219;28;19925;-68
2021/06/21 13:22:58;;;;;;;;;;;28.30;79.20;;;;;;5029490;28;19924;-69
2021/06/21 13:25:48;;;;;;;;;;;28.60;79.20;;;;;;5029276;28;20357;-68
2021/06/21 13:28:42;;;;;;;;;;;28.50;77.70;;;;;;5029729;28;19951;-70
2021/06/21 13:31:32;;;;;;;;;;;28.20;78.60;;;;;;5030152;28;19976;-68
2021/06/21 13:34:36;;;;;;;;;;;28.20;80.10;;;;;;5029285;28;19927;-69
2021/06/21 13:37:27;;;;;;;;;;;28.20;79.20;;;;;;5023590;28;19982;-68
2021/06/21 13:40:18;;;;;;;;;;;28.10;79.30;;;;;;5024772;28;19920;-68
2021/06/21 13:43:09;;;;;;;;;;;28.30;80.40;;;;;;5034806;28;20372;-70
2021/06/21 13:49:59;;;;;;;;;;;28.30;77.80;;;;;;5050416;28;19921;-69
2021/06/21 13:52:49;;;;;;;;;;;28.20;78.00;;;;;;5052242;28;19921;-69
2021/06/21 13:55:40;;;;;;;;;;;28.10;79.10;;;;;;5053231;28;19920;-69
2021/06/21 13:58:33;;;;;;;;;;;28.30;79.80;;;;;;5052291;28;19983;-69
2021/06/21 14:01:51;;;;;;;;;;;29.00;77.40;;;;;;5052754;28;20017;-69
2021/06/21 14:04:39;;;;;;;;;;;29.70;73.40;;;;;;5055778;28;20003;-69
2021/06/21 14:07:28;;;;;;;;;;;30.30;73.90;;;;;;5028205;28;19921;-69
2021/06/21 14:10:19;;;;;;;;;;;29.40;73.60;;;;;;5053057;28;19975;-69
2021/06/21 14:13:08;;;;;;;;;;;29.00;75.30;;;;;;5049955;28;19928;-69
2021/06/21 14:15:57;;;;;;;;;;;28.70;73.40;;;;;;5051486;28;20015;-68
2021/06/21 14:18:47;;;;;;;;;;;28.80;74.50;;;;;;5030143;28;19924;-68
2021/06/21 14:21:37;;;;;;;;;;;28.80;75.00;;;;;;5051153;28;19920;-69
2021/06/21 14:24:26;;;;;;;;;;;28.80;76.20;;;;;;5055027;28;19928;-69
2021/06/21 14:27:17;;;;;;;;;;;28.90;75.00;;;;;;5037447;28;19921;-71
2021/06/21 14:30:06;;;;;;;;;;;28.90;76.10;;;;;;5055161;28;19921;-71
2021/06/21 14:32:55;;;;;;;;;;;28.70;75.10;;;;;;5050728;28;20475;-68
2021/06/21 14:35:44;;;;;;;;;;;28.60;76.10;;;;;;5040431;28;19924;-69
2021/06/21 14:38:33;;;;;;;;;;;28.50;76.80;;;;;;5053251;28;19925;-68
2021/06/21 14:41:22;;;;;;;;;;;28.40;77.90;;;;;;5052173;28;19929;-68
2021/06/21 14:44:13;;;;;;;;;;;28.50;77.50;;;;;;5037966;28;19933;-69
2021/06/21 14:47:02;;;;;;;;;;;28.40;77.30;;;;;;5050104;28;19932;-68
2021/06/21 14:50:11;;;;;;;;;;;28.40;77.10;;;;;;5054370;28;19925;-68
2021/06/21 14:53:03;;;;;;;;;;;28.60;78.50;;;;;;5053131;28;20015;-68
2021/06/21 14:55:52;;;;;;;;;;;28.70;74.60;;;;;;5047092;28;19936;-69
2021/06/21 14:59:06;;;;;;;;;;;28.50;75.20;;;;;;5053900;28;19925;-69
2021/06/21 15:01:56;;;;;;;;;;;28.30;76.50;;;;;;5044229;28;20334;-69
2021/06/21 15:04:44;;;;;;;;;;;28.30;77.30;;;;;;5041138;28;19994;-69
2021/06/21 15:07:34;;;;;;;;;;;28.30;78.60;;;;;;5048547;28;19925;-68
2021/06/21 15:10:24;;;;;;;;;;;28.30;78.60;;;;;;5051610;28;19925;-69
2021/06/21 15:13:14;;;;;;;;;;;28.50;78.10;;;;;;5052946;28;19990;-68
2021/06/21 15:16:04;;;;;;;;;;;28.50;77.90;;;;;;5051201;28;19960;-69
2021/06/21 15:18:54;;;;;;;;;;;28.30;76.20;;;;;;5049130;28;20022;-68
2021/06/21 15:21:42;;;;;;;;;;;28.40;75.80;;;;;;5026450;28;20055;-69
2021/06/21 15:24:31;;;;;;;;;;;28.20;75.70;;;;;;5052802;28;19945;-68
2021/06/21 15:27:20;;;;;;;;;;;28.10;77.40;;;;;;5050658;28;20118;-69
2021/06/21 15:30:10;;;;;;;;;;;28.10;77.50;;;;;;5039957;28;19921;-69
2021/06/21 15:32:59;;;;;;;;;;;28.10;79.00;;;;;;5050470;28;19920;-69
2021/06/21 15:35:49;;;;;;;;;;;28.20;79.80;;;;;;5038042;28;20381;-68
2021/06/21 15:38:38;;;;;;;;;;;28.30;79.90;;;;;;5054045;28;19925;-68
2021/06/21 15:41:51;;;;;;;;;;;28.40;79.80;;;;;;5043006;28;19920;-71
2021/06/21 15:45:06;;;;;;;;;;;28.50;79.40;;;;;;5050864;28;19992;-68
2021/06/21 15:47:55;;;;;;;;;;;28.50;79.10;;;;;;5057640;28;19920;-68
2021/06/21 15:50:44;;;;;;;;;;;28.20;80.00;;;;;;5044719;28;19921;-68
2021/06/21 15:53:59;;;;;;;;;;;28.30;80.70;;;;;;5054827;28;20331;-69
2021/06/21 15:56:48;;;;;;;;;;;28.50;79.40;;;;;;5055246;28;20035;-69
2021/06/21 15:59:37;;;;;;;;;;;28.60;77.50;;;;;;5060976;28;20085;-69
2021/06/21 16:02:26;;;;;;;;;;;28.50;76.70;;;;;;5060898;28;20262;-69
2021/06/21 16:05:15;;;;;;;;;;;28.30;77.30;;;;;;5031187;28;20252;-69
2021/06/21 16:08:05;;;;;;;;;;;28.20;79.10;;;;;;5062352;28;19983;-69
2021/06/21 16:10:55;;;;;;;;;;;28.20;78.30;;;;;;5055912;28;20019;-69
2021/06/21 16:13:44;;;;;;;;;;;28.30;78.10;;;;;;5033586;28;19943;-69
2021/06/21 16:16:33;;;;;;;;;;;28.50;75.20;;;;;;5055846;28;19920;-69
2021/06/21 16:19:25;;;;;;;;;;;28.40;73.50;;;;;;5050688;28;19924;-69
2021/06/21 16:22:13;;;;;;;;;;;28.30;72.60;;;;;;5040782;28;19961;-69
2021/06/21 16:25:03;;;;;;;;;;;28.20;73.80;;;;;;5063472;28;19938;-69
2021/06/21 16:27:53;;;;;;;;;;;28.20;76.50;;;;;;5053904;28;19920;-71
2021/06/21 16:30:44;;;;;;;;;;;27.90;77.50;;;;;;5055790;28;19920;-69
2021/06/21 16:33:32;;;;;;;;;;;27.90;77.90;;;;;;5049835;28;19921;-69
2021/06/21 16:36:21;;;;;;;;;;;28.00;77.80;;;;;;5064555;28;19943;-70
2021/06/21 16:39:14;;;;;;;;;;;28.10;78.50;;;;;;5046272;28;19929;-70
2021/06/21 16:42:03;;;;;;;;;;;27.80;78.90;;;;;;5042732;28;19944;-69
2021/06/21 16:44:54;;;;;;;;;;;27.60;79.50;;;;;;5051919;28;19920;-69
2021/06/21 16:47:42;;;;;;;;;;;27.60;80.50;;;;;;5061684;28;20289;-70
2021/06/21 16:50:32;;;;;;;;;;;27.60;80.10;;;;;;5059589;28;20353;-70
2021/06/21 16:53:21;;;;;;;;;;;27.70;81.40;;;;;;5043639;28;19921;-69
2021/06/21 16:56:10;;;;;;;;;;;27.80;79.30;;;;;;5053408;28;20015;-70
2021/06/21 16:59:01;;;;;;;;;;;27.80;80.40;;;;;;5048257;28;20035;-69